Time;durP1;ratioP1;P1;durP2;ratioP2;P2;SDS_P1;SDS_P2;PMS_P1;PMS_P2;Temp;Humidity;BMP_temperature;BMP_pressure;BME280_temperature;BME280_humidity;BME280_pressure;Samples;Min_cycle;Max_cycle;Signal;HPM_P1;HPM_P2
2022/11/27 00:01:22;;;;;;;15.13;8.85;;;22.40;57.40;;;;;;5054689;28;20061;-67
2022/11/27 00:03:49;;;;;;;13.38;8.77;;;22.30;57.50;;;;;;5050705;28;20123;-68
2022/11/27 00:06:18;;;;;;;13.15;8.05;;;22.40;57.40;;;;;;5053695;28;20033;-67
2022/11/27 00:08:45;;;;;;;19.02;9.52;;;22.30;57.40;;;;;;5050470;28;20129;-68
2022/11/27 00:11:14;;;;;;;20.65;10.55;;;22.30;57.30;;;;;;5051994;28;20620;-68
2022/11/27 00:13:41;;;;;;;16.30;9.57;;;22.30;57.30;;;;;;5050598;28;20044;-68
2022/11/27 00:16:07;;;;;;;14.60;9.45;;;22.30;57.40;;;;;;5057528;28;20020;-68
2022/11/27 00:18:34;;;;;;;13.48;8.38;;;22.20;57.20;;;;;;5072651;28;20037;-68
2022/11/27 00:21:04;;;;;;;13.88;9.18;;;22.20;57.30;;;;;;5074419;28;20534;-67
2022/11/27 00:23:32;;;;;;;17.17;9.57;;;22.20;57.30;;;;;;5074045;28;20112;-68
2022/11/27 00:25:58;;;;;;;16.77;9.40;;;22.20;57.30;;;;;;5073818;28;20043;-68
2022/11/27 00:28:24;;;;;;;14.88;8.50;;;22.10;57.30;;;;;;5074528;28;20025;-68
2022/11/27 00:30:50;;;;;;;16.30;8.95;;;22.10;57.40;;;;;;5071936;28;20031;-67
2022/11/27 00:33:16;;;;;;;14.95;8.70;;;22.10;57.40;;;;;;5074666;28;20403;-68
2022/11/27 00:35:42;;;;;;;16.88;8.55;;;22.10;57.40;;;;;;5074568;28;20036;-68
2022/11/27 00:38:08;;;;;;;15.85;8.63;;;22.20;57.50;;;;;;5074430;28;20025;-67
2022/11/27 00:40:34;;;;;;;17.50;9.75;;;22.20;57.50;;;;;;5066771;28;20366;-68
2022/11/27 00:43:00;;;;;;;15.35;8.93;;;22.20;57.50;;;;;;5061156;28;20115;-68
2022/11/27 00:45:27;;;;;;;12.48;8.07;;;22.10;57.40;;;;;;5054245;28;20039;-68
2022/11/27 00:47:53;;;;;;;16.85;9.07;;;22.10;57.30;;;;;;5054123;28;20062;-68
2022/11/27 00:50:19;;;;;;;17.88;8.48;;;22.20;57.20;;;;;;5054273;28;20047;-67
2022/11/27 00:52:45;;;;;;;16.13;9.40;;;22.20;57.20;;;;;;5054191;28;20397;-68
2022/11/27 00:55:11;;;;;;;15.35;8.30;;;22.20;57.20;;;;;;5055575;28;20033;-68
2022/11/27 00:57:37;;;;;;;15.50;8.32;;;22.20;57.30;;;;;;5053984;28;20032;-67
2022/11/27 01:00:05;;;;;;;17.35;9.63;;;22.20;57.20;;;;;;5054787;28;20063;-68
2022/11/27 01:02:31;;;;;;;17.13;8.48;;;22.20;57.10;;;;;;5010183;28;20571;-67
2022/11/27 01:04:57;;;;;;;14.30;9.02;;;22.30;57.20;;;;;;5011791;28;20479;-68
2022/11/27 01:07:25;;;;;;;18.42;9.07;;;22.10;57.20;;;;;;5022181;28;20064;-67
2022/11/27 01:09:51;;;;;;;13.98;8.55;;;22.10;57.30;;;;;;5048873;28;20037;-68
2022/11/27 01:12:17;;;;;;;14.60;8.73;;;22.20;57.30;;;;;;5051186;28;20072;-68
2022/11/27 01:14:43;;;;;;;13.98;8.48;;;22.10;57.30;;;;;;5031191;28;20048;-68
2022/11/27 01:17:09;;;;;;;13.02;8.57;;;22.00;57.20;;;;;;5067251;28;20039;-68
2022/11/27 01:19:37;;;;;;;16.20;9.07;;;21.90;57.20;;;;;;5063110;28;20103;-67
2022/11/27 01:22:03;;;;;;;13.75;8.57;;;21.90;57.20;;;;;;5051084;28;20071;-68
2022/11/27 01:24:29;;;;;;;16.00;8.63;;;22.10;57.40;;;;;;5050705;28;20034;-68
2022/11/27 01:26:55;;;;;;;17.42;8.65;;;21.90;57.30;;;;;;5042863;28;20136;-68
2022/11/27 01:29:20;;;;;;;19.45;8.73;;;21.90;57.30;;;;;;5050157;28;20040;-68
2022/11/27 01:31:46;;;;;;;16.90;9.20;;;21.90;57.30;;;;;;5037527;28;20140;-68
2022/11/27 01:34:15;;;;;;;15.43;8.88;;;21.90;57.20;;;;;;5030818;28;20152;-68
2022/11/27 01:36:41;;;;;;;15.98;8.70;;;22.10;57.30;;;;;;5030664;28;20429;-68
2022/11/27 01:39:16;;;;;;;15.20;8.65;;;21.90;57.20;;;;;;5045023;28;20046;-67
2022/11/27 01:41:43;;;;;;;14.85;8.57;;;22.00;57.10;;;;;;5073045;28;20432;-68
2022/11/27 01:44:24;;;;;;;13.88;8.20;;;22.00;57.00;;;;;;5074426;28;20438;-68
2022/11/27 01:47:03;;;;;;;12.35;7.60;;;22.00;57.00;;;;;;5086883;28;20040;-68
2022/11/27 01:49:32;;;;;;;17.48;8.60;;;22.00;57.00;;;;;;5093105;28;20052;-68
2022/11/27 01:52:02;;;;;;;13.05;8.10;;;22.10;57.00;;;;;;5093441;28;20040;-68
2022/11/27 01:54:36;;;;;;;15.52;8.25;;;22.00;56.80;;;;;;5091857;28;20102;-68
2022/11/27 01:57:12;;;;;;;16.73;8.82;;;22.00;56.80;;;;;;5083803;28;20048;-68
2022/11/27 01:59:39;;;;;;;16.55;8.85;;;21.90;56.90;;;;;;5077393;28;20107;-68
2022/11/27 02:02:05;;;;;;;13.50;8.70;;;22.00;56.90;;;;;;5089896;28;20384;-68
2022/11/27 02:04:31;;;;;;;13.65;8.00;;;22.00;57.00;;;;;;5073208;28;20131;-68
2022/11/27 02:06:58;;;;;;;15.02;8.05;;;21.90;57.00;;;;;;5091445;28;20118;-68
2022/11/27 02:09:26;;;;;;;14.00;8.65;;;21.90;57.00;;;;;;5071162;28;20036;-67
2022/11/27 02:11:55;;;;;;;11.15;7.30;;;21.70;56.90;;;;;;5054107;28;20470;-68
2022/11/27 02:14:27;;;;;;;14.98;8.13;;;21.90;57.10;;;;;;5036857;28;20028;-68
2022/11/27 02:16:56;;;;;;;15.32;7.85;;;21.80;56.90;;;;;;5070753;28;20074;-68
2022/11/27 02:19:36;;;;;;;16.42;7.50;;;21.70;56.90;;;;;;5072657;28;20082;-68
2022/11/27 02:22:16;;;;;;;14.18;8.13;;;21.70;56.90;;;;;;5071437;28;20050;-67
2022/11/27 02:24:51;;;;;;;15.02;7.53;;;21.80;56.90;;;;;;5070523;28;20029;-68
2022/11/27 02:27:23;;;;;;;13.05;7.65;;;21.90;56.90;;;;;;5052224;28;20043;-68
2022/11/27 02:29:55;;;;;;;15.35;7.80;;;21.80;56.70;;;;;;5038553;28;20040;-68
2022/11/27 02:32:43;;;;;;;11.87;7.60;;;21.90;56.80;;;;;;5070528;28;20493;-67
2022/11/27 02:35:15;;;;;;;17.20;7.55;;;21.80;56.60;;;;;;5069491;28;20638;-68
2022/11/27 02:37:49;;;;;;;12.70;7.57;;;22.00;56.70;;;;;;5052189;28;20469;-68
2022/11/27 02:40:22;;;;;;;13.82;7.82;;;21.90;56.60;;;;;;5070076;28;20040;-68
2022/11/27 02:42:54;;;;;;;11.93;6.90;;;21.90;56.50;;;;;;5072035;28;20531;-68
2022/11/27 02:45:32;;;;;;;15.65;7.55;;;21.90;56.50;;;;;;5051243;28;20547;-67
2022/11/27 02:47:58;;;;;;;12.93;7.53;;;22.00;56.40;;;;;;5071593;28;20107;-68
2022/11/27 02:50:27;;;;;;;12.65;7.25;;;21.90;56.50;;;;;;5070888;28;20557;-68
2022/11/27 02:52:58;;;;;;;17.02;7.75;;;22.00;56.50;;;;;;5014709;28;20044;-68
2022/11/27 02:55:26;;;;;;;13.20;7.22;;;21.70;56.50;;;;;;5053596;28;20041;-66
2022/11/27 02:57:55;;;;;;;10.43;6.65;;;21.80;56.50;;;;;;5051246;28;20033;-68
2022/11/27 03:00:21;;;;;;;12.45;6.88;;;21.80;56.50;;;;;;5053570;28;20032;-68
2022/11/27 03:02:56;;;;;;;14.25;7.55;;;21.70;56.50;;;;;;5053004;28;20389;-68
2022/11/27 03:05:25;;;;;;;12.13;7.30;;;21.70;56.40;;;;;;5053000;28;20028;-68
2022/11/27 03:08:09;;;;;;;12.90;7.75;;;21.70;56.50;;;;;;5069626;28;20098;-68
2022/11/27 03:10:48;;;;;;;14.50;7.97;;;21.70;56.50;;;;;;5064539;28;20029;-67
2022/11/27 03:13:14;;;;;;;14.85;7.45;;;21.70;56.50;;;;;;5050729;28;20115;-68
2022/11/27 03:16:26;;;;;;;11.98;6.90;;;21.70;56.50;;;;;;5057205;28;20031;-68
2022/11/27 03:18:55;;;;;;;11.88;6.85;;;21.70;56.40;;;;;;4989211;28;20046;-68
2022/11/27 03:21:38;;;;;;;12.65;6.80;;;21.70;56.40;;;;;;4989477;28;20042;-68
2022/11/27 03:24:06;;;;;;;14.77;7.07;;;21.70;56.40;;;;;;4989530;28;20070;-68
2022/11/27 03:26:32;;;;;;;12.45;7.22;;;21.70;56.20;;;;;;4982824;28;20042;-68
2022/11/27 03:29:00;;;;;;;12.70;7.07;;;21.80;56.20;;;;;;4969922;28;20039;-68
2022/11/27 03:31:26;;;;;;;11.00;6.50;;;21.90;56.20;;;;;;4988532;28;20082;-68
2022/11/27 03:33:53;;;;;;;13.77;6.45;;;21.80;56.10;;;;;;4986331;28;20093;-68
2022/11/27 03:36:20;;;;;;;9.43;5.90;;;21.80;56.00;;;;;;4985810;28;20046;-68
2022/11/27 03:38:48;;;;;;;15.18;6.28;;;21.70;56.00;;;;;;4989276;28;20388;-68
2022/11/27 03:41:47;;;;;;;7.25;4.93;;;21.80;55.90;;;;;;4987561;28;20373;-68
2022/11/27 03:44:25;;;;;;;9.73;5.45;;;21.80;55.90;;;;;;4988734;28;20101;-68
2022/11/27 03:47:17;;;;;;;8.48;5.18;;;21.60;55.80;;;;;;4955676;28;20046;-68
2022/11/27 03:50:09;;;;;;;7.40;4.80;;;21.60;55.90;;;;;;4988814;28;20301;-68
2022/11/27 03:53:00;;;;;;;10.15;6.03;;;21.70;56.00;;;;;;4988613;28;20498;-67
2022/11/27 03:55:29;;;;;;;9.38;6.03;;;21.60;55.90;;;;;;5008411;28;20052;-68
2022/11/27 03:58:00;;;;;;;10.88;5.15;;;21.60;55.90;;;;;;5056681;28;20036;-67
2022/11/27 04:00:31;;;;;;;10.07;5.00;;;21.70;56.10;;;;;;5060561;28;20537;-68
2022/11/27 04:02:57;;;;;;;8.30;4.75;;;21.60;56.00;;;;;;5068740;28;20516;-68
2022/11/27 04:05:23;;;;;;;7.47;5.32;;;21.60;56.00;;;;;;5070614;28;20128;-68
2022/11/27 04:07:49;;;;;;;7.75;4.93;;;21.50;56.00;;;;;;5070683;28;20095;-68
2022/11/27 04:10:15;;;;;;;10.05;5.53;;;21.60;55.90;;;;;;5070141;28;20036;-68
2022/11/27 04:12:41;;;;;;;9.40;5.15;;;21.60;55.80;;;;;;5050172;28;20044;-68
2022/11/27 04:15:08;;;;;;;8.60;6.18;;;21.60;55.80;;;;;;5033281;28;20045;-68
2022/11/27 04:17:33;;;;;;;9.23;4.00;;;21.70;55.80;;;;;;5069934;28;20047;-67
2022/11/27 04:20:00;;;;;;;8.88;5.60;;;21.70;55.70;;;;;;5070419;28;20498;-67
2022/11/27 04:22:26;;;;;;;8.50;4.85;;;21.70;55.60;;;;;;5069885;28;20033;-69
2022/11/27 04:24:52;;;;;;;8.68;4.95;;;21.70;55.60;;;;;;5070104;28;20032;-68
2022/11/27 04:27:18;;;;;;;6.22;4.15;;;21.60;55.40;;;;;;5059478;28;20414;-68
2022/11/27 04:29:44;;;;;;;9.05;5.28;;;21.60;55.40;;;;;;5060201;28;20024;-67
2022/11/27 04:32:09;;;;;;;7.35;4.47;;;21.70;55.40;;;;;;5038936;28;20037;-68
2022/11/27 04:34:35;;;;;;;6.80;4.80;;;21.70;55.40;;;;;;5034920;28;20052;-68
2022/11/27 04:37:01;;;;;;;7.07;4.55;;;21.60;55.30;;;;;;5052996;28;20084;-67
2022/11/27 04:39:27;;;;;;;6.35;3.83;;;21.60;55.30;;;;;;5049865;28;20101;-68
2022/11/27 04:41:53;;;;;;;7.55;3.83;;;21.60;55.30;;;;;;5051848;28;20043;-67
2022/11/27 04:44:21;;;;;;;6.20;4.53;;;21.70;55.30;;;;;;5058182;28;20362;-67
2022/11/27 04:46:48;;;;;;;13.48;4.88;;;21.60;55.30;;;;;;5050570;28;20055;-68
2022/11/27 04:49:14;;;;;;;8.60;4.57;;;21.60;55.20;;;;;;5069502;28;20111;-68
2022/11/27 04:51:40;;;;;;;7.05;4.70;;;21.60;55.20;;;;;;5069271;28;20501;-68
2022/11/27 04:54:06;;;;;;;7.05;4.30;;;21.40;55.10;;;;;;5069860;28;20028;-67
2022/11/27 04:56:32;;;;;;;6.75;4.70;;;21.40;55.10;;;;;;5066300;28;20035;-68
2022/11/27 04:58:58;;;;;;;7.30;4.60;;;21.50;55.10;;;;;;5069061;28;20024;-68
2022/11/27 05:01:24;;;;;;;7.70;4.28;;;21.40;55.10;;;;;;5069211;28;20036;-68
2022/11/27 05:03:50;;;;;;;11.27;5.82;;;21.50;55.10;;;;;;5069488;28;20040;-68
2022/11/27 05:06:16;;;;;;;10.18;6.43;;;21.50;55.10;;;;;;5053120;28;20029;-68
2022/11/27 05:08:42;;;;;;;10.15;5.80;;;21.40;54.90;;;;;;5053962;28;20624;-68
2022/11/27 05:11:11;;;;;;;8.23;5.18;;;21.50;55.00;;;;;;5017660;28;20122;-68
2022/11/27 05:13:38;;;;;;;8.60;5.80;;;21.50;54.90;;;;;;5065749;28;20658;-68
2022/11/27 05:16:04;;;;;;;11.95;5.97;;;21.60;54.90;;;;;;5072752;28;20021;-69
2022/11/27 05:18:31;;;;;;;8.95;4.70;;;21.60;54.80;;;;;;5073460;28;20132;-68
2022/11/27 05:21:04;;;;;;;9.20;5.40;;;21.60;54.70;;;;;;5054480;28;20067;-68
2022/11/27 05:23:30;;;;;;;9.77;5.90;;;21.60;54.70;;;;;;5073789;28;20064;-68
2022/11/27 05:25:57;;;;;;;6.07;4.20;;;21.60;54.70;;;;;;5070564;28;20374;-68
2022/11/27 05:28:23;;;;;;;9.13;5.05;;;21.60;54.50;;;;;;5057766;28;20029;-68
2022/11/27 05:30:50;;;;;;;8.80;5.40;;;21.60;54.60;;;;;;5071726;28;20072;-67
2022/11/27 05:33:16;;;;;;;8.15;5.32;;;21.60;54.50;;;;;;5072667;28;22070;-69
2022/11/27 05:35:44;;;;;;;10.32;5.07;;;21.50;54.50;;;;;;5072786;28;20033;-68
2022/11/27 05:38:11;;;;;;;12.07;6.28;;;21.50;54.60;;;;;;5073224;28;20063;-68
2022/11/27 05:40:38;;;;;;;10.23;6.18;;;21.40;54.50;;;;;;5055141;28;20102;-69
2022/11/27 05:43:04;;;;;;;13.35;7.10;;;21.50;54.50;;;;;;5073107;28;20114;-69
2022/11/27 05:45:30;;;;;;;13.00;7.28;;;21.40;54.40;;;;;;5072349;28;20029;-69
2022/11/27 05:47:56;;;;;;;10.70;7.10;;;21.40;54.50;;;;;;5073478;28;20029;-69
2022/11/27 05:50:22;;;;;;;13.95;7.47;;;21.40;54.60;;;;;;5073201;28;20036;-68
2022/11/27 05:52:48;;;;;;;15.05;7.93;;;21.30;54.60;;;;;;5073148;28;20051;-67
2022/11/27 05:55:14;;;;;;;10.93;7.32;;;21.30;54.50;;;;;;5073013;28;20576;-69
2022/11/27 05:57:40;;;;;;;12.10;6.88;;;21.40;54.50;;;;;;5072739;28;20036;-68
2022/11/27 06:00:07;;;;;;;14.10;8.50;;;21.40;54.50;;;;;;5071167;28;20028;-68
2022/11/27 06:02:33;;;;;;;20.08;9.32;;;21.40;54.50;;;;;;5053934;28;20131;-68
2022/11/27 06:04:59;;;;;;;15.00;8.73;;;21.50;54.40;;;;;;5072810;28;20131;-69
2022/11/27 06:07:25;;;;;;;15.25;8.70;;;21.30;54.30;;;;;;5069528;28;20491;-68
2022/11/27 06:09:51;;;;;;;23.33;11.25;;;21.40;54.40;;;;;;5072574;28;20024;-68
2022/11/27 06:12:17;;;;;;;32.67;17.80;;;21.50;54.40;;;;;;5072134;28;20123;-69
2022/11/27 06:14:43;;;;;;;27.23;14.32;;;21.40;54.20;;;;;;5070621;28;20062;-69
2022/11/27 06:17:08;;;;;;;24.88;12.63;;;21.50;54.30;;;;;;5071218;28;20572;-68
2022/11/27 06:19:34;;;;;;;17.40;9.82;;;21.50;54.20;;;;;;5072096;28;20033;-69
2022/11/27 06:22:00;;;;;;;14.43;9.52;;;21.60;54.00;;;;;;5072034;28;20489;-69
2022/11/27 06:24:27;;;;;;;15.15;9.75;;;21.40;54.50;;;;;;5072368;28;20040;-67
2022/11/27 06:26:53;;;;;;;12.98;8.98;;;21.50;49.90;;;;;;5047917;28;20107;-67
2022/11/27 06:29:18;;;;;;;12.43;8.68;;;21.30;47.30;;;;;;5063888;28;20029;-67
2022/11/27 06:31:44;;;;;;;13.02;8.68;;;21.40;46.30;;;;;;5072073;28;20040;-67
2022/11/27 06:34:11;;;;;;;12.82;8.63;;;21.50;46.00;;;;;;5072274;28;20041;-66
2022/11/27 06:36:39;;;;;;;13.90;8.38;;;21.50;45.60;;;;;;5072160;28;20033;-67
2022/11/27 06:39:08;;;;;;;12.73;7.93;;;21.70;46.50;;;;;;5036229;28;20040;-68
2022/11/27 06:41:34;;;;;;;10.90;7.45;;;21.70;46.50;;;;;;5036087;28;20098;-68
2022/11/27 06:44:01;;;;;;;11.45;8.07;;;21.70;46.10;;;;;;5069767;28;20039;-68
2022/11/27 06:46:28;;;;;;;12.27;7.20;;;21.90;45.40;;;;;;5053302;28;20527;-67
2022/11/27 06:48:56;;;;;;;9.65;6.68;;;22.00;46.00;;;;;;5063216;28;20052;-69
2022/11/27 06:51:26;;;;;;;9.95;5.38;;;22.10;46.50;;;;;;5070887;28;20038;-68
2022/11/27 06:53:53;;;;;;;9.52;5.75;;;22.10;45.20;;;;;;5070138;28;20123;-68
2022/11/27 06:56:25;;;;;;;9.32;5.47;;;22.20;45.20;;;;;;5066242;28;20120;-68
2022/11/27 06:58:53;;;;;;;9.77;5.32;;;22.30;44.70;;;;;;5063448;28;20478;-67
2022/11/27 07:01:21;;;;;;;12.60;5.28;;;22.20;45.30;;;;;;5061172;28;20037;-67
2022/11/27 07:03:47;;;;;;;9.10;5.93;;;22.30;44.90;;;;;;5052187;28;20112;-67
2022/11/27 07:06:16;;;;;;;10.65;6.03;;;22.40;45.80;;;;;;5051853;28;20041;-67
2022/11/27 07:08:43;;;;;;;8.60;5.65;;;22.40;47.10;;;;;;5052044;28;20045;-67
2022/11/27 07:11:17;;;;;;;12.13;6.85;;;22.50;49.80;;;;;;5033463;28;20362;-66
2022/11/27 07:13:47;;;;;;;8.75;6.05;;;22.60;47.90;;;;;;5057217;28;20051;-68
2022/11/27 07:16:14;;;;;;;10.05;6.68;;;22.60;47.40;;;;;;5070860;28;20090;-68
2022/11/27 07:18:42;;;;;;;8.43;4.65;;;22.70;54.80;;;;;;5070777;28;20400;-68
2022/11/27 07:21:09;;;;;;;6.28;4.13;;;22.70;58.40;;;;;;5071733;28;20043;-67
2022/11/27 07:23:36;;;;;;;8.82;4.97;;;22.90;58.60;;;;;;5067534;28;20059;-68
2022/11/27 07:26:14;;;;;;;8.20;5.03;;;22.90;58.30;;;;;;5002443;28;20048;-68
2022/11/27 07:28:43;;;;;;;9.32;5.80;;;22.80;56.40;;;;;;5055074;28;20033;-68
2022/11/27 07:31:11;;;;;;;10.75;5.55;;;22.90;55.10;;;;;;5071292;28;20032;-68
2022/11/27 07:33:37;;;;;;;10.45;5.53;;;22.90;54.10;;;;;;5059722;28;20492;-68
2022/11/27 07:36:11;;;;;;;10.27;6.53;;;23.00;53.20;;;;;;5052068;28;20083;-68
2022/11/27 07:38:37;;;;;;;11.82;6.30;;;22.90;52.40;;;;;;5051309;28;20433;-67
2022/11/27 07:41:04;;;;;;;10.18;6.13;;;23.00;52.10;;;;;;5051351;28;20389;-68
2022/11/27 07:43:32;;;;;;;10.98;5.90;;;22.90;55.10;;;;;;4999209;28;20040;-67
2022/11/27 07:46:02;;;;;;;8.35;5.28;;;23.00;53.70;;;;;;5051321;28;20049;-68
2022/11/27 07:48:28;;;;;;;12.48;6.30;;;23.00;53.50;;;;;;5051054;28;20033;-68
2022/11/27 07:50:54;;;;;;;7.47;4.97;;;23.00;53.40;;;;;;5051295;28;20398;-67
2022/11/27 07:53:20;;;;;;;12.80;7.40;;;23.00;53.40;;;;;;5050935;28;20064;-67
2022/11/27 07:55:46;;;;;;;12.52;6.50;;;23.00;53.20;;;;;;5050942;28;20033;-68
2022/11/27 07:58:12;;;;;;;15.02;7.68;;;23.10;53.00;;;;;;5050928;28;20021;-68
2022/11/27 08:00:38;;;;;;;10.95;6.38;;;23.00;52.80;;;;;;5050862;28;20048;-69
2022/11/27 08:03:04;;;;;;;10.05;6.18;;;23.00;52.60;;;;;;5051023;28;20115;-68
2022/11/27 08:05:34;;;;;;;12.82;7.13;;;23.10;52.50;;;;;;5003360;28;20033;-68
2022/11/27 08:08:02;;;;;;;16.52;7.57;;;23.00;52.10;;;;;;5050853;28;20470;-69
2022/11/27 08:10:35;;;;;;;15.18;8.07;;;23.00;51.80;;;;;;5050876;28;20041;-68
2022/11/27 08:13:01;;;;;;;16.50;8.32;;;22.80;52.50;;;;;;5050912;28;20036;-68
2022/11/27 08:15:27;;;;;;;14.90;7.53;;;22.70;53.70;;;;;;5050719;28;20355;-68
2022/11/27 08:17:52;;;;;;;12.95;7.05;;;22.60;54.40;;;;;;5050970;28;20029;-68
2022/11/27 08:20:19;;;;;;;15.20;7.93;;;22.60;54.80;;;;;;5050569;28;20141;-68
2022/11/27 08:22:45;;;;;;;11.63;6.57;;;22.60;55.10;;;;;;5038397;28;20039;-68
2022/11/27 08:25:11;;;;;;;13.60;7.45;;;22.50;55.60;;;;;;5071115;28;20036;-67
2022/11/27 08:27:37;;;;;;;15.63;7.55;;;22.50;55.80;;;;;;5070957;28;20036;-67
2022/11/27 08:30:04;;;;;;;15.55;7.25;;;22.60;55.90;;;;;;5070614;28;20087;-67
2022/11/27 08:32:30;;;;;;;13.98;7.00;;;22.50;56.00;;;;;;5070634;28;20021;-67
2022/11/27 08:34:56;;;;;;;13.98;8.07;;;22.50;56.20;;;;;;5071068;28;20115;-66
2022/11/27 08:37:22;;;;;;;15.13;7.13;;;22.40;56.20;;;;;;5070599;28;20753;-67
2022/11/27 08:39:48;;;;;;;16.33;7.47;;;22.30;56.40;;;;;;5073804;28;20450;-67
2022/11/27 08:42:14;;;;;;;18.00;8.55;;;22.30;56.60;;;;;;5074717;28;20115;-68
2022/11/27 08:44:40;;;;;;;14.48;7.28;;;22.30;57.10;;;;;;5074603;28;20132;-67
2022/11/27 08:47:06;;;;;;;14.40;7.00;;;22.40;57.40;;;;;;5074376;28;20411;-68
2022/11/27 08:49:33;;;;;;;14.63;6.72;;;22.40;57.60;;;;;;5074163;28;20107;-68
2022/11/27 08:51:58;;;;;;;16.00;7.47;;;22.30;57.60;;;;;;5071291;28;20033;-68
2022/11/27 08:54:25;;;;;;;16.77;7.97;;;22.30;57.80;;;;;;5024362;28;20049;-68
2022/11/27 08:56:51;;;;;;;13.60;7.15;;;22.40;58.00;;;;;;5036537;28;20029;-69
2022/11/27 08:59:17;;;;;;;13.95;7.43;;;22.30;58.10;;;;;;5053957;28;20033;-68
2022/11/27 09:01:43;;;;;;;12.38;7.07;;;22.40;58.10;;;;;;5054313;28;20131;-67
2022/11/27 09:04:09;;;;;;;11.88;6.53;;;22.40;57.90;;;;;;5054040;28;20128;-68
2022/11/27 09:06:35;;;;;;;17.38;7.00;;;22.30;58.30;;;;;;5054456;28;20127;-68
2022/11/27 09:09:04;;;;;;;13.68;6.30;;;22.30;58.30;;;;;;5070276;28;20087;-67
2022/11/27 09:11:32;;;;;;;14.80;7.55;;;22.30;58.40;;;;;;5073950;28;20466;-69
2022/11/27 09:14:00;;;;;;;14.68;7.47;;;22.40;58.40;;;;;;5076477;28;20381;-69
2022/11/27 09:16:26;;;;;;;18.42;7.63;;;22.20;58.70;;;;;;5094230;28;20094;-69
2022/11/27 09:18:53;;;;;;;12.55;7.10;;;22.40;59.10;;;;;;5070977;28;20040;-69
2022/11/27 09:21:21;;;;;;;15.73;7.65;;;22.40;58.60;;;;;;5076954;28;21268;-70
2022/11/27 09:23:47;;;;;;;15.65;8.88;;;22.30;58.20;;;;;;5092599;28;20064;-69
2022/11/27 09:26:15;;;;;;;17.85;8.50;;;22.40;58.40;;;;;;5072732;28;20116;-70
2022/11/27 09:28:42;;;;;;;16.90;8.70;;;22.40;58.30;;;;;;5073375;28;20385;-70
2022/11/27 09:31:11;;;;;;;14.10;8.48;;;22.40;58.20;;;;;;5072727;28;20097;-70
2022/11/27 09:33:39;;;;;;;16.90;8.50;;;22.50;58.20;;;;;;5073184;28;20033;-70
2022/11/27 09:36:08;;;;;;;16.60;8.93;;;22.40;58.00;;;;;;5073665;28;20037;-70
2022/11/27 09:38:34;;;;;;;18.77;8.98;;;22.50;58.00;;;;;;5073603;28;20029;-70
2022/11/27 09:41:37;;;;;;;21.38;9.23;;;22.50;58.00;;;;;;5072188;28;20037;-70
2022/11/27 09:44:30;;;;;;;17.30;8.68;;;22.60;57.90;;;;;;5071037;28;20068;-70
2022/11/27 09:47:00;;;;;;;20.30;10.18;;;22.40;57.80;;;;;;5030507;28;20045;-70
2022/11/27 09:49:35;;;;;;;19.52;9.13;;;22.40;57.80;;;;;;5030501;28;20045;-69
2022/11/27 09:52:12;;;;;;;23.02;10.35;;;22.50;57.80;;;;;;5030510;28;20054;-69
2022/11/27 09:55:01;;;;;;;17.63;9.02;;;22.40;57.80;;;;;;5030768;28;20139;-70
2022/11/27 09:57:33;;;;;;;18.27;8.75;;;22.30;57.90;;;;;;5030476;28;20048;-70
2022/11/27 10:00:10;;;;;;;18.03;8.30;;;22.40;57.90;;;;;;5030175;28;20152;-69
2022/11/27 10:02:36;;;;;;;17.67;8.57;;;22.40;57.80;;;;;;5030149;28;20337;-70
2022/11/27 10:05:06;;;;;;;16.80;9.23;;;22.30;57.90;;;;;;5029918;28;20076;-70
2022/11/27 10:07:51;;;;;;;18.75;9.30;;;22.40;57.80;;;;;;5029860;28;20112;-69
2022/11/27 10:11:04;;;;;;;17.27;9.05;;;22.30;58.20;;;;;;5029451;28;20045;-70
2022/11/27 10:13:38;;;;;;;21.35;9.82;;;22.20;58.10;;;;;;5009963;28;20421;-70
2022/11/27 10:16:13;;;;;;;16.50;9.40;;;22.20;58.10;;;;;;5001262;28;20034;-70
2022/11/27 10:18:48;;;;;;;24.05;9.40;;;22.20;58.00;;;;;;4999122;28;20581;-70
2022/11/27 10:21:35;;;;;;;20.75;9.98;;;22.30;58.10;;;;;;4990725;28;20030;-70
2022/11/27 10:24:35;;;;;;;15.95;9.32;;;22.30;58.00;;;;;;4994977;28;20570;-70
2022/11/27 10:27:08;;;;;;;18.92;10.13;;;22.30;58.00;;;;;;5030095;28;20033;-69
2022/11/27 10:29:40;;;;;;;21.25;10.43;;;22.40;57.90;;;;;;5029963;28;20159;-70
2022/11/27 10:32:34;;;;;;;19.85;11.15;;;22.40;58.00;;;;;;5029872;28;20141;-69
2022/11/27 10:35:12;;;;;;;22.75;11.88;;;22.40;57.80;;;;;;5040321;28;20142;-70
2022/11/27 10:37:46;;;;;;;16.65;10.40;;;22.40;57.90;;;;;;5049724;28;20049;-69
2022/11/27 10:40:12;;;;;;;19.48;11.00;;;22.30;58.00;;;;;;5049576;28;20065;-70
2022/11/27 10:42:39;;;;;;;20.38;11.27;;;22.20;57.90;;;;;;5049713;28;20095;-70
2022/11/27 10:45:16;;;;;;;22.00;11.18;;;22.00;57.90;;;;;;5049873;28;20418;-70
2022/11/27 10:47:45;;;;;;;18.92;11.07;;;22.00;58.00;;;;;;5049709;28;20041;-68
2022/11/27 10:50:16;;;;;;;21.95;10.80;;;21.90;58.10;;;;;;5071724;28;20105;-69
2022/11/27 10:52:56;;;;;;;20.85;11.23;;;22.00;58.10;;;;;;5092522;28;20050;-69
2022/11/27 10:55:45;;;;;;;22.48;11.50;;;22.00;58.20;;;;;;5092274;28;20028;-70
2022/11/27 10:58:35;;;;;;;20.50;10.98;;;21.90;58.20;;;;;;5022844;28;20033;-70
2022/11/27 11:01:07;;;;;;;21.00;10.00;;;21.90;58.20;;;;;;5028446;28;20033;-70
2022/11/27 11:03:33;;;;;;;17.60;10.57;;;21.90;58.40;;;;;;5029340;28;20453;-70
2022/11/27 11:06:05;;;;;;;23.42;11.18;;;21.90;58.30;;;;;;4996387;28;20044;-69
2022/11/27 11:08:33;;;;;;;20.05;11.15;;;22.00;58.30;;;;;;5028983;28;20491;-69
2022/11/27 11:11:03;;;;;;;19.83;11.85;;;21.80;58.10;;;;;;5022396;28;20053;-70
2022/11/27 11:13:31;;;;;;;19.23;11.35;;;21.90;58.20;;;;;;5010011;28;20482;-70
2022/11/27 11:16:05;;;;;;;19.85;12.55;;;21.70;58.00;;;;;;5016658;28;20097;-67
2022/11/27 11:18:41;;;;;;;23.55;12.85;;;22.00;51.80;;;;;;5025819;28;20042;-67
2022/11/27 11:21:21;;;;;;;25.08;11.52;;;21.90;48.60;;;;;;5028712;28;20080;-67
2022/11/27 11:24:19;;;;;;;23.27;12.60;;;22.30;50.60;;;;;;5019986;28;20394;-67
2022/11/27 11:26:49;;;;;;;19.67;12.25;;;22.40;53.80;;;;;;5008246;28;20553;-68
2022/11/27 11:29:35;;;;;;;16.00;10.07;;;22.60;46.20;;;;;;5008116;28;20053;-69
2022/11/27 11:32:31;;;;;;;16.25;10.43;;;22.50;45.20;;;;;;5008167;28;20439;-69
2022/11/27 11:35:02;;;;;;;21.50;9.90;;;22.50;44.50;;;;;;5034763;28;20128;-68
2022/11/27 11:37:33;;;;;;;18.15;10.25;;;22.50;45.40;;;;;;5071198;28;20029;-69
2022/11/27 11:40:05;;;;;;;19.73;11.48;;;22.60;45.60;;;;;;5071276;28;20040;-69
2022/11/27 11:42:35;;;;;;;20.38;12.32;;;22.50;46.00;;;;;;5077971;28;20513;-69
2022/11/27 11:45:15;;;;;;;19.88;12.48;;;22.70;45.10;;;;;;5088388;28;20032;-69
2022/11/27 11:47:52;;;;;;;19.23;11.50;;;22.60;45.30;;;;;;5090021;28;20075;-67
2022/11/27 11:50:46;;;;;;;19.48;11.00;;;22.80;48.70;;;;;;5091445;28;20055;-69
2022/11/27 11:53:34;;;;;;;18.52;11.50;;;23.10;54.10;;;;;;5091316;28;20039;-69
2022/11/27 11:56:19;;;;;;;17.77;11.65;;;23.30;46.90;;;;;;5089110;28;20045;-69
2022/11/27 11:58:57;;;;;;;23.88;13.10;;;23.20;44.30;;;;;;5071983;28;20101;-70
2022/11/27 12:01:33;;;;;;;23.90;14.23;;;23.10;44.30;;;;;;5090758;28;20086;-69
2022/11/27 12:04:30;;;;;;;25.23;14.82;;;23.20;54.10;;;;;;5091276;28;20056;-67
2022/11/27 12:07:09;;;;;;;23.63;14.50;;;23.20;53.90;;;;;;5088416;28;20032;-68
2022/11/27 12:09:45;;;;;;;26.60;14.35;;;23.00;55.00;;;;;;5070882;28;20036;-67
2022/11/27 12:12:14;;;;;;;22.70;13.85;;;23.00;55.30;;;;;;5033379;28;20781;-66
2022/11/27 12:14:50;;;;;;;28.95;15.90;;;22.90;55.70;;;;;;5060223;28;20113;-67
2022/11/27 12:17:41;;;;;;;24.77;14.95;;;22.80;55.80;;;;;;5067845;28;20036;-67
2022/11/27 12:20:25;;;;;;;26.42;14.52;;;22.80;55.90;;;;;;5061934;28;20399;-67
2022/11/27 12:23:21;;;;;;;31.80;16.98;;;22.80;56.30;;;;;;5063228;28;20111;-67
2022/11/27 12:26:09;;;;;;;28.80;15.57;;;22.60;56.20;;;;;;5056769;28;20064;-68
2022/11/27 12:28:38;;;;;;;29.33;16.00;;;22.70;56.40;;;;;;5058363;28;20110;-69
2022/11/27 12:31:32;;;;;;;28.02;15.45;;;22.50;56.70;;;;;;5073368;28;20068;-70
2022/11/27 12:34:09;;;;;;;26.50;15.25;;;22.50;57.20;;;;;;5068511;28;20098;-68
2022/11/27 12:36:54;;;;;;;28.80;17.30;;;22.50;57.40;;;;;;5056266;28;20021;-66
2022/11/27 12:39:31;;;;;;;31.73;15.52;;;22.40;57.40;;;;;;5067956;28;20044;-65
2022/11/27 12:42:25;;;;;;;28.45;14.70;;;22.50;57.90;;;;;;5069511;28;20025;-68
2022/11/27 12:45:16;;;;;;;32.10;14.73;;;22.40;57.60;;;;;;5058677;28;20032;-68
2022/11/27 12:47:54;;;;;;;32.40;16.38;;;22.50;58.00;;;;;;5020822;28;20076;-66
2022/11/27 12:50:22;;;;;;;29.48;16.65;;;22.50;58.20;;;;;;5056662;28;20041;-68
2022/11/27 12:53:17;;;;;;;32.38;16.05;;;22.40;58.10;;;;;;5039252;28;20111;-67
2022/11/27 12:56:07;;;;;;;35.42;16.42;;;22.30;58.20;;;;;;4992068;28;20034;-68